KALS/ALS METAR and TAF weather

Enter ICAO airport designator
Station Type Date Time Source
KALS METAR 2019/06/26 17:52 UTC NOAA

KALS 261752Z AUTO 15007KT 10SM CLR 24/M05 A3028 RMK AO2 SLP153 T02441050 10244 20050 58008


Station Type Date Time Source
KALS Decoded METAR 2019/06/26 17:52 UTC NOAA

SAN LUIS VALLEY REGIONAL, CO, United States (KALS) 37-26N 105-52W 2299M
Jun 26, 2019 - 01:52 PM EDT / 2019.06.26 1752 UTC
Wind: from the SSE (150 degrees) at 8 MPH (7 KT):0
Visibility: 10 mile(s):0
Sky conditions: clear
Temperature: 75.9 F (24.4 C)
Dew Point: 23.0 F (-5.0 C)
Relative Humidity: 13%
Pressure (altimeter): 30.28 in. Hg (1025 hPa)
Pressure tendency: 0.02 inches (0.8 hPa) lower than three hours ago
ob: KALS 261752Z AUTO 15007KT 10SM CLR 24/M05 A3028 RMK AO2 SLP153 T02441050 10244 20050 58008
cycle: 18

Station Type Date Time Source
KALS TAF 2019/06/26 18:40 UTC NOAA

TAF KALS 261738Z 2618/2718 20010KT P6SM FEW100 SCT200
FM261900 23015G25KT P6SM SCT100 SCT200
FM270200 19008KT P6SM FEW100 SCT200
FM270700 VRB06KT P6SM FEW200
FM271700 21010KT P6SM FEW100

Example: see airport list